Time;durP1;ratioP1;P1;durP2;ratioP2;P2;SDS_P1;SDS_P2;PMS_P1;PMS_P2;Temp;Humidity;BMP_temperature;BMP_pressure;BME280_temperature;BME280_humidity;BME280_pressure;Samples;Min_cycle;Max_cycle;Signal;HPM_P1;HPM_P2
2023/07/02 00:02:07;;;;;;;11.93;10.83;;;;;;;17.89;95.17;92249.09;5009403;28;20189;-80
2023/07/02 00:04:33;;;;;;;12.10;11.00;;;;;;;17.80;95.71;92245.78;5008547;28;20296;-80
2023/07/02 00:06:58;;;;;;;13.27;11.13;;;;;;;17.85;96.48;92253.50;5009473;28;20326;-79
2023/07/02 00:09:24;;;;;;;12.17;11.17;;;;;;;17.79;96.77;92252.94;5008875;28;20202;-80
2023/07/02 00:11:49;;;;;;;11.50;10.60;;;;;;;17.63;97.63;92239.63;5009480;28;20199;-81
2023/07/02 00:14:14;;;;;;;13.70;12.37;;;;;;;17.72;97.89;92252.72;5016757;28;20180;-82
2023/07/02 00:16:47;;;;;;;12.93;11.80;;;;;;;17.77;97.65;92244.59;5009308;28;20184;-81
2023/07/02 00:19:16;;;;;;;11.23;10.27;;;;;;;17.71;97.78;92242.50;5007226;28;20191;-80
2023/07/02 00:21:42;;;;;;;11.77;10.67;;;;;;;17.83;97.02;92237.97;5009196;28;20195;-80
2023/07/02 00:24:11;;;;;;;12.50;11.50;;;;;;;17.57;97.95;92227.75;5009003;28;20191;-78
2023/07/02 00:26:38;;;;;;;12.23;11.13;;;;;;;17.73;98.44;92235.03;5009275;28;20244;-76
2023/07/02 00:29:05;;;;;;;11.83;10.73;;;;;;;17.63;99.02;92226.41;5009061;28;20998;-76
2023/07/02 00:31:32;;;;;;;12.37;11.27;;;;;;;17.54;98.98;92246.13;5008444;28;20230;-76
2023/07/02 00:33:57;;;;;;;13.73;11.53;;;;;;;17.63;98.28;92239.63;5009770;28;20311;-74
2023/07/02 00:36:22;;;;;;;14.13;11.80;;;;;;;17.62;98.39;92241.84;5010200;28;20250;-76
2023/07/02 00:38:49;;;;;;;13.57;12.37;;;;;;;17.58;98.51;92242.50;5040860;28;20180;-75
2023/07/02 00:41:15;;;;;;;13.43;12.30;;;;;;;17.42;100.00;92240.78;5008313;28;20232;-76
2023/07/02 00:43:43;;;;;;;14.77;11.67;;;;;;;17.25;100.00;92248.91;5021014;28;20198;-76
2023/07/02 00:46:19;;;;;;;14.10;12.67;;;;;;;17.50;99.43;92253.94;5011336;28;20243;-76
2023/07/02 00:48:55;;;;;;;15.70;12.20;;;;;;;17.63;98.43;92254.72;5013141;28;20219;-75
2023/07/02 00:51:25;;;;;;;13.20;12.10;;;;;;;17.74;97.84;92262.97;5013177;28;20222;-75
2023/07/02 00:53:53;;;;;;;11.97;10.97;;;;;;;17.67;98.13;92257.44;5012934;28;20211;-76
2023/07/02 00:56:18;;;;;;;12.10;11.10;;;;;;;17.60;98.35;92253.47;5012647;28;20250;-75
2023/07/02 00:58:50;;;;;;;13.63;12.33;;;;;;;17.59;98.68;92253.81;5012510;28;20188;-75
2023/07/02 01:01:25;;;;;;;13.03;11.80;;;;;;;17.58;99.09;92242.50;5011913;28;20223;-75
2023/07/02 01:04:03;;;;;;;12.90;11.80;;;;;;;17.75;98.71;92251.28;5012292;28;20438;-75
2023/07/02 01:06:30;;;;;;;12.67;11.47;;;;;;;17.63;98.91;92244.91;5013005;28;20236;-76
2023/07/02 01:09:01;;;;;;;12.30;11.10;;;;;;;17.76;99.02;92258.13;5012096;28;20215;-75
2023/07/02 01:11:29;;;;;;;12.37;11.20;;;;;;;17.73;98.71;92254.25;5012069;28;20224;-76
2023/07/02 01:14:17;;;;;;;12.70;11.50;;;;;;;17.70;99.50;92259.44;5017456;28;20179;-75
2023/07/02 01:16:44;;;;;;;12.73;11.53;;;;;;;17.70;99.17;92254.16;5015692;28;20235;-75
2023/07/02 01:19:41;;;;;;;13.30;12.10;;;;;;;17.72;99.42;92265.16;5015081;28;20185;-75
2023/07/02 01:22:08;;;;;;;12.03;10.93;;;;;;;17.62;100.00;92268.25;5012973;28;20187;-75
2023/07/02 01:24:34;;;;;;;11.63;10.00;;;;;;;17.70;100.00;92262.84;5023290;28;20254;-75
2023/07/02 01:27:02;;;;;;;11.60;10.43;;;;;;;17.68;100.00;92261.66;5013793;28;20224;-76
2023/07/02 01:29:31;;;;;;;12.47;11.07;;;;;;;17.41;100.00;92241.91;5013221;28;20241;-76
2023/07/02 01:31:57;;;;;;;12.70;11.27;;;;;;;17.43;100.00;92245.00;5012515;28;20217;-76
2023/07/02 01:34:22;;;;;;;11.83;10.80;;;;;;;17.55;100.00;92252.94;5013061;28;20180;-76
2023/07/02 01:36:48;;;;;;;12.03;10.97;;;;;;;17.71;100.00;92243.28;5012785;28;20240;-75
2023/07/02 01:39:13;;;;;;;12.67;11.20;;;;;;;17.65;100.00;92231.38;5010971;28;20214;-76
2023/07/02 01:41:43;;;;;;;13.60;12.20;;;;;;;17.73;100.00;92227.09;5012565;28;20189;-75
2023/07/02 01:44:08;;;;;;;14.23;12.80;;;;;;;17.72;100.00;92231.59;5022303;28;20180;-76
2023/07/02 01:46:34;;;;;;;13.50;12.03;;;;;;;17.79;100.00;92209.94;5011149;28;20210;-75
2023/07/02 01:48:59;;;;;;;13.83;12.43;;;;;;;17.73;100.00;92213.91;5024161;28;20258;-76
2023/07/02 01:51:24;;;;;;;12.87;11.57;;;;;;;17.51;100.00;92205.31;5011451;28;20223;-75
2023/07/02 01:53:50;;;;;;;14.77;13.13;;;;;;;17.62;100.00;92189.03;5012385;28;20225;-75
2023/07/02 01:56:15;;;;;;;14.73;12.90;;;;;;;17.44;100.00;92178.72;5010169;28;20229;-76
2023/07/02 01:58:40;;;;;;;22.33;14.17;;;;;;;17.78;100.00;92169.53;5013923;28;20212;-75
2023/07/02 02:01:06;;;;;;;17.00;12.77;;;;;;;17.60;100.00;92184.84;5011352;28;20247;-75
2023/07/02 02:03:31;;;;;;;19.07;12.87;;;;;;;17.22;100.00;92207.34;5011876;28;20238;-76
2023/07/02 02:05:56;;;;;;;20.10;13.67;;;;;;;17.12;100.00;92226.25;5010941;28;20231;-75
2023/07/02 02:08:22;;;;;;;17.43;13.43;;;;;;;16.73;100.00;92240.75;5011854;28;20233;-75
2023/07/02 02:10:47;;;;;;;19.40;14.67;;;;;;;16.83;100.00;92239.56;5011346;28;20282;-75
2023/07/02 02:13:13;;;;;;;15.83;14.33;;;;;;;16.78;100.00;92235.28;5013561;28;20195;-75
2023/07/02 02:15:38;;;;;;;16.93;15.13;;;;;;;16.78;100.00;92219.47;5016757;28;20224;-76
2023/07/02 02:18:03;;;;;;;15.30;13.77;;;;;;;16.82;100.00;92204.53;5011659;28;20196;-76
2023/07/02 02:20:29;;;;;;;19.57;13.83;;;;;;;16.84;100.00;92202.34;5011054;28;20215;-76
2023/07/02 02:22:54;;;;;;;18.43;14.47;;;;;;;17.12;100.00;92190.06;5021508;28;20194;-76
2023/07/02 02:25:20;;;;;;;18.60;14.37;;;;;;;16.68;100.00;92190.88;5013028;28;20238;-79
2023/07/02 02:27:45;;;;;;;16.73;14.73;;;;;;;16.75;100.00;92204.28;5014792;28;20214;-80
2023/07/02 02:30:10;;;;;;;18.00;14.10;;;;;;;16.88;100.00;92191.91;5017784;28;20224;-80
2023/07/02 02:32:37;;;;;;;17.63;14.50;;;;;;;16.93;100.00;92196.97;5011391;28;20220;-79
2023/07/02 02:35:02;;;;;;;16.87;14.47;;;;;;;16.90;100.00;92195.75;5011012;28;20227;-80
2023/07/02 02:37:29;;;;;;;16.73;13.87;;;;;;;16.93;100.00;92197.75;5011512;28;20187;-80
2023/07/02 02:39:57;;;;;;;15.50;13.13;;;;;;;17.05;100.00;92191.72;5010895;28;20219;-80
2023/07/02 02:42:22;;;;;;;16.03;13.80;;;;;;;17.01;100.00;92202.16;5011550;28;20405;-78
2023/07/02 02:44:47;;;;;;;15.20;13.67;;;;;;;16.91;100.00;92185.97;5018176;28;20211;-79
2023/07/02 02:47:13;;;;;;;17.43;14.70;;;;;;;17.01;100.00;92196.88;5011146;28;20222;-80
2023/07/02 02:49:39;;;;;;;14.13;12.53;;;;;;;17.16;100.00;92190.19;5009849;28;20235;-79
2023/07/02 02:52:05;;;;;;;15.07;13.47;;;;;;;17.03;100.00;92186.00;5043261;28;20193;-80
2023/07/02 02:54:30;;;;;;;14.30;12.57;;;;;;;17.01;100.00;92175.78;5010769;28;20228;-79
2023/07/02 02:56:56;;;;;;;14.97;13.07;;;;;;;16.84;100.00;92185.75;5011276;28;20200;-80
2023/07/02 02:59:21;;;;;;;15.13;13.57;;;;;;;17.23;100.00;92193.84;5012394;28;20239;-80
2023/07/02 03:01:46;;;;;;;15.07;13.60;;;;;;;17.15;100.00;92213.16;5043257;28;20183;-80
2023/07/02 03:04:12;;;;;;;19.13;14.87;;;;;;;17.22;100.00;92191.53;5009280;28;20228;-80
2023/07/02 03:06:37;;;;;;;16.80;13.03;;;;;;;17.09;100.00;92188.09;5010827;28;20211;-80
2023/07/02 03:09:02;;;;;;;15.33;13.67;;;;;;;17.17;100.00;92207.56;5022777;28;20202;-78
2023/07/02 03:11:28;;;;;;;16.17;13.50;;;;;;;17.25;100.00;92202.19;5010579;28;20675;-80
2023/07/02 03:13:53;;;;;;;15.17;13.60;;;;;;;17.22;100.00;92208.13;5011255;28;20227;-80
2023/07/02 03:16:21;;;;;;;15.67;13.50;;;;;;;17.32;100.00;92212.22;5008285;28;20225;-81
2023/07/02 03:18:46;;;;;;;18.07;14.27;;;;;;;17.35;100.00;92207.03;5008605;28;20210;-81
2023/07/02 03:21:12;;;;;;;14.67;13.10;;;;;;;17.26;100.00;92208.25;5017218;28;20223;-82
2023/07/02 03:23:37;;;;;;;15.30;13.70;;;;;;;17.31;100.00;92200.09;5023999;28;20188;-82
2023/07/02 03:26:03;;;;;;;15.47;13.97;;;;;;;16.92;100.00;92211.25;5019377;28;20310;-80
2023/07/02 03:28:28;;;;;;;17.87;14.30;;;;;;;16.98;100.00;92204.69;5019732;28;20266;-81
2023/07/02 03:30:54;;;;;;;14.77;13.23;;;;;;;17.24;100.00;92195.41;5000728;28;20247;-80
2023/07/02 03:33:19;;;;;;;14.87;13.30;;;;;;;17.29;100.00;92212.88;5010295;28;20177;-79
2023/07/02 03:35:44;;;;;;;15.57;13.97;;;;;;;16.98;100.00;92231.81;5009893;28;20223;-81
2023/07/02 03:38:10;;;;;;;13.80;12.03;;;;;;;17.00;100.00;92221.72;5010072;28;20203;-80
2023/07/02 03:40:35;;;;;;;12.53;11.37;;;;;;;17.01;100.00;92225.13;5008782;28;20223;-81
2023/07/02 03:43:01;;;;;;;13.03;11.03;;;;;;;17.39;100.00;92239.59;5009871;28;20196;-82
2023/07/02 03:45:26;;;;;;;12.00;10.77;;;;;;;17.47;100.00;92230.84;5009983;28;20231;-81
2023/07/02 03:47:52;;;;;;;13.03;11.83;;;;;;;17.38;100.00;92226.72;5009518;28;20216;-81
2023/07/02 03:50:17;;;;;;;17.00;12.80;;;;;;;17.47;100.00;92220.28;5009833;28;20220;-79
2023/07/02 03:52:43;;;;;;;13.50;12.13;;;;;;;17.39;100.00;92217.69;5009983;28;20269;-81
2023/07/02 03:55:08;;;;;;;13.23;11.93;;;;;;;17.45;100.00;92222.47;5010313;28;20220;-82
2023/07/02 03:57:34;;;;;;;13.83;12.50;;;;;;;17.57;100.00;92227.75;5012680;28;20195;-82
2023/07/02 03:59:59;;;;;;;13.07;11.87;;;;;;;17.56;100.00;92223.56;5010017;28;20219;-82
2023/07/02 04:02:25;;;;;;;13.50;12.13;;;;;;;17.52;100.00;92233.25;5009692;28;20188;-81
2023/07/02 04:04:50;;;;;;;14.10;12.83;;;;;;;17.46;100.00;92213.44;5023361;28;20223;-81
2023/07/02 04:07:15;;;;;;;14.03;12.73;;;;;;;17.50;100.00;92214.34;5010067;28;20219;-85
2023/07/02 04:09:41;;;;;;;15.57;13.53;;;;;;;17.27;100.00;92213.19;5009571;28;20228;-83
2023/07/02 04:12:07;;;;;;;14.27;12.87;;;;;;;16.87;100.00;92212.22;5010134;28;20202;-83
2023/07/02 04:14:32;;;;;;;15.53;12.67;;;;;;;16.99;100.00;92232.59;5002884;28;20282;-84
2023/07/02 04:16:58;;;;;;;13.30;11.43;;;;;;;17.32;100.00;92234.06;5015752;28;20202;-80
2023/07/02 04:19:23;;;;;;;12.87;11.50;;;;;;;17.37;100.00;92233.88;5009964;28;20230;-82
2023/07/02 04:21:49;;;;;;;14.83;12.37;;;;;;;17.42;100.00;92244.22;5013578;28;20196;-83
2023/07/02 04:24:14;;;;;;;14.20;11.93;;;;;;;17.48;100.00;92248.19;5014229;28;20188;-83
2023/07/02 04:26:42;;;;;;;13.17;11.77;;;;;;;17.51;100.00;92239.63;5014077;28;20214;-84
2023/07/02 04:29:09;;;;;;;13.17;11.17;;;;;;;17.46;100.00;92231.91;5014718;28;20184;-80
2023/07/02 04:31:34;;;;;;;17.37;12.23;;;;;;;17.49;100.00;92248.97;5024399;28;20201;-84
2023/07/02 04:34:00;;;;;;;14.87;13.37;;;;;;;17.58;100.00;92262.84;5014152;28;20255;-84
2023/07/02 04:36:25;;;;;;;13.17;11.87;;;;;;;17.58;100.00;92268.91;5013539;28;20219;-83
2023/07/02 04:38:50;;;;;;;14.37;12.97;;;;;;;17.59;100.00;92267.78;5013810;28;20180;-81
2023/07/02 04:41:18;;;;;;;13.63;12.23;;;;;;;17.64;100.00;92272.09;5013089;28;21024;-81
2023/07/02 04:43:45;;;;;;;16.30;13.40;;;;;;;17.77;100.00;92280.78;5013593;28;20198;-75
2023/07/02 04:46:12;;;;;;;14.03;12.73;;;;;;;17.63;100.00;92288.25;5021305;28;20224;-77
2023/07/02 04:48:38;;;;;;;13.30;11.70;;;;;;;17.69;100.00;92276.38;5013667;28;20213;-76
2023/07/02 04:51:03;;;;;;;14.47;13.13;;;;;;;17.67;100.00;92295.19;5012852;28;20243;-77
2023/07/02 04:53:28;;;;;;;13.93;12.57;;;;;;;17.60;100.00;92284.41;5013750;28;20188;-76
2023/07/02 04:55:54;;;;;;;16.73;12.47;;;;;;;17.40;100.00;92296.53;5013052;28;21095;-77
2023/07/02 04:58:20;;;;;;;15.53;12.83;;;;;;;17.24;100.00;92298.28;5013234;28;20189;-76
2023/07/02 05:00:45;;;;;;;15.43;13.93;;;;;;;17.51;100.00;92296.91;5015723;28;20304;-77
2023/07/02 05:03:10;;;;;;;13.37;12.17;;;;;;;17.69;100.00;92295.63;5013166;28;20229;-75
2023/07/02 05:05:36;;;;;;;15.00;13.23;;;;;;;17.73;100.00;92293.13;5012320;28;20236;-76
2023/07/02 05:08:01;;;;;;;13.83;12.43;;;;;;;17.96;100.00;92310.06;5013293;28;20237;-76
2023/07/02 05:10:27;;;;;;;16.83;13.07;;;;;;;17.88;100.00;92306.44;5012440;28;20252;-76
2023/07/02 05:12:52;;;;;;;13.73;11.67;;;;;;;18.04;100.00;92303.91;5013294;28;20214;-77
2023/07/02 05:15:18;;;;;;;15.03;13.53;;;;;;;17.85;100.00;92285.19;5016605;28;20235;-75
2023/07/02 05:17:43;;;;;;;14.33;13.00;;;;;;;18.06;100.00;92312.25;5044835;28;20194;-75
2023/07/02 05:20:09;;;;;;;15.10;13.67;;;;;;;17.98;100.00;92313.16;5012614;28;20228;-76
2023/07/02 05:22:34;;;;;;;13.57;12.17;;;;;;;18.14;100.00;92303.44;5019921;28;20201;-76
2023/07/02 05:25:00;;;;;;;15.07;12.10;;;;;;;18.22;100.00;92303.34;5017248;28;20231;-76
2023/07/02 05:27:25;;;;;;;13.40;12.10;;;;;;;18.23;100.00;92309.38;5012945;28;20260;-75
2023/07/02 05:29:51;;;;;;;15.33;13.77;;;;;;;18.44;100.00;92302.91;5011972;28;20244;-76
2023/07/02 05:32:16;;;;;;;14.73;12.63;;;;;;;18.35;100.00;92304.09;5015489;28;20217;-76
2023/07/02 05:34:41;;;;;;;14.23;13.00;;;;;;;18.49;100.00;92307.19;5011701;28;20225;-76
2023/07/02 05:37:07;;;;;;;13.90;12.40;;;;;;;18.46;100.00;92302.56;5013698;28;20200;-75
2023/07/02 05:39:34;;;;;;;13.07;11.53;;;;;;;18.55;100.00;92309.25;5012671;28;20237;-76
2023/07/02 05:41:59;;;;;;;15.23;12.77;;;;;;;18.85;100.00;92315.00;5012513;28;20198;-76
2023/07/02 05:44:24;;;;;;;17.90;14.00;;;;;;;19.01;100.00;92306.03;5011512;28;20178;-76
2023/07/02 05:46:50;;;;;;;15.03;12.70;;;;;;;19.31;100.00;92311.78;5012229;28;20209;-76
2023/07/02 05:49:15;;;;;;;13.87;12.47;;;;;;;19.36;100.00;92314.19;5010501;28;20174;-76
2023/07/02 05:51:41;;;;;;;14.50;11.97;;;;;;;19.47;100.00;92317.84;5012122;28;20220;-76
2023/07/02 05:54:06;;;;;;;15.40;12.83;;;;;;;19.41;100.00;92311.25;5022819;28;20184;-76
2023/07/02 05:56:32;;;;;;;16.27;13.73;;;;;;;19.56;100.00;92323.78;5010298;28;20266;-72
2023/07/02 05:58:57;;;;;;;15.87;12.33;;;;;;;19.70;100.00;92328.66;5006603;28;20195;-70
2023/07/02 06:01:23;;;;;;;17.10;13.43;;;;;;;20.00;100.00;92327.88;5009479;28;20253;-70
2023/07/02 06:03:51;;;;;;;14.63;12.63;;;;;;;20.64;99.78;92330.13;5009987;28;20233;-71
2023/07/02 06:06:16;;;;;;;16.98;14.70;;;;;;;22.13;90.84;92306.81;5009629;28;20242;-68
2023/07/02 06:08:42;;;;;;;22.33;14.68;;;;;;;23.18;85.17;92331.53;5017054;28;20591;-71
2023/07/02 06:11:09;;;;;;;15.20;13.60;;;;;;;23.21;81.68;92320.13;5009420;28;20218;-72
2023/07/02 06:13:34;;;;;;;16.40;13.07;;;;;;;22.37;84.97;92326.94;5010812;28;20187;-71
2023/07/02 06:15:59;;;;;;;20.85;14.27;;;;;;;21.27;92.35;92325.41;5009582;28;20244;-71
2023/07/02 06:18:25;;;;;;;15.57;13.73;;;;;;;20.97;95.11;92316.44;5010272;28;20300;-70
2023/07/02 06:20:50;;;;;;;15.10;13.52;;;;;;;20.62;96.08;92314.56;5009328;28;20248;-73
2023/07/02 06:23:15;;;;;;;20.88;15.77;;;;;;;20.49;94.05;92323.00;5012990;28;20200;-73
2023/07/02 06:25:41;;;;;;;18.60;13.75;;;;;;;20.37;94.65;92318.56;5009959;28;20237;-71
2023/07/02 06:28:06;;;;;;;17.38;14.45;;;;;;;20.11;95.48;92264.53;5010014;28;20278;-72
2023/07/02 06:30:31;;;;;;;15.57;13.43;;;;;;;20.49;95.67;92315.81;5009665;28;20232;-72
2023/07/02 06:32:57;;;;;;;16.45;12.90;;;;;;;20.46;95.54;92308.53;5009761;28;20200;-71
2023/07/02 06:35:22;;;;;;;14.85;13.40;;;;;;;20.44;96.25;92310.78;5009384;28;20246;-71
2023/07/02 06:37:48;;;;;;;19.00;14.15;;;;;;;20.63;97.19;92305.50;5012065;28;20189;-72
2023/07/02 06:40:13;;;;;;;20.35;13.40;;;;;;;20.88;96.11;92306.00;5009964;28;20227;-73
2023/07/02 06:42:40;;;;;;;15.43;12.48;;;;;;;21.05;92.71;92297.66;5003007;28;20205;-72
2023/07/02 06:45:06;;;;;;;15.55;12.52;;;;;;;21.19;91.55;92299.81;5007916;28;20240;-72
2023/07/02 06:47:32;;;;;;;13.10;11.73;;;;;;;21.45;91.86;92298.03;5009142;28;20251;-71
2023/07/02 06:49:58;;;;;;;13.15;11.85;;;;;;;21.74;87.89;92304.63;5009434;28;20212;-69
2023/07/02 06:52:23;;;;;;;15.77;12.57;;;;;;;21.95;84.81;92305.00;5010050;28;20192;-72
2023/07/02 06:54:49;;;;;;;14.98;12.40;;;;;;;22.27;82.75;92312.34;5010673;28;20221;-71
2023/07/02 06:57:15;;;;;;;15.02;12.80;;;;;;;22.56;82.37;92310.91;5009929;28;20217;-71
2023/07/02 06:59:40;;;;;;;14.90;12.82;;;;;;;22.70;80.35;92305.00;5009060;28;20237;-72
2023/07/02 07:02:06;;;;;;;14.70;12.05;;;;;;;22.70;81.89;92305.78;5009804;28;20171;-71
2023/07/02 07:04:32;;;;;;;12.95;11.65;;;;;;;23.03;80.58;92315.72;5009195;28;20248;-71
2023/07/02 07:06:57;;;;;;;12.77;11.52;;;;;;;22.96;78.81;92316.41;5012784;28;20213;-71
2023/07/02 07:09:23;;;;;;;13.68;12.27;;;;;;;23.01;78.63;92317.97;5009539;28;20215;-72
2023/07/02 07:11:48;;;;;;;16.70;13.00;;;;;;;22.67;77.93;92325.16;5008472;28;20182;-71
2023/07/02 07:14:14;;;;;;;17.00;14.35;;;;;;;22.78;78.95;92315.41;5009520;28;20803;-71
2023/07/02 07:16:39;;;;;;;15.70;11.77;;;;;;;22.87;79.74;92328.44;5010695;28;20198;-72
2023/07/02 07:19:05;;;;;;;18.08;12.90;;;;;;;23.20;76.98;92323.94;5009705;28;20195;-72
2023/07/02 07:21:31;;;;;;;20.88;12.98;;;;;;;22.92;77.41;92326.25;5004591;28;20251;-72
2023/07/02 07:23:57;;;;;;;15.40;12.20;;;;;;;23.23;76.74;92331.22;5013205;28;20202;-70
2023/07/02 07:26:22;;;;;;;13.77;11.90;;;;;;;23.31;76.17;92332.84;5009601;28;20242;-72
2023/07/02 07:28:47;;;;;;;15.68;13.25;;;;;;;23.18;77.75;92328.84;5008473;28;20190;-71
2023/07/02 07:31:13;;;;;;;15.48;13.52;;;;;;;22.69;78.05;92330.88;5009004;28;20249;-71
2023/07/02 07:33:38;;;;;;;18.88;14.43;;;;;;;23.20;78.11;92323.94;5008197;28;20194;-71
2023/07/02 07:36:04;;;;;;;14.63;13.07;;;;;;;23.26;77.29;92325.19;5010500;28;20230;-74
2023/07/02 07:38:29;;;;;;;17.08;13.88;;;;;;;23.94;75.96;92326.66;5008866;28;20196;-72
2023/07/02 07:40:55;;;;;;;21.63;19.42;;;;;;;23.71;74.65;92316.16;5008662;28;20299;-73
2023/07/02 07:43:20;;;;;;;17.90;16.10;;;;;;;24.05;75.19;92314.22;5009241;28;20184;-72
2023/07/02 07:45:45;;;;;;;20.90;18.90;;;;;;;24.09;75.02;92315.00;5007659;28;20233;-73
2023/07/02 07:48:11;;;;;;;14.77;13.23;;;;;;;23.90;72.62;92323.19;5009986;28;20213;-73
2023/07/02 07:50:36;;;;;;;14.68;13.27;;;;;;;24.05;71.98;92336.31;5009219;28;20232;-73
2023/07/02 07:53:02;;;;;;;15.30;13.82;;;;;;;24.11;73.67;92326.09;5006412;28;20237;-73
2023/07/02 07:55:27;;;;;;;14.18;12.70;;;;;;;24.14;74.27;92322.69;5008366;28;20285;-73
2023/07/02 07:57:53;;;;;;;13.55;12.38;;;;;;;24.42;72.67;92336.25;5008664;28;20178;-75
2023/07/02 08:00:18;;;;;;;15.90;13.38;;;;;;;24.52;72.84;92328.31;5008093;28;20375;-74
2023/07/02 08:02:46;;;;;;;16.00;12.82;;;;;;;24.24;70.34;92338.00;5008576;28;20198;-72
2023/07/02 08:05:12;;;;;;;13.05;11.65;;;;;;;23.60;72.84;92337.38;5008792;28;20243;-71
2023/07/02 08:07:40;;;;;;;14.73;13.00;;;;;;;23.40;74.77;92333.34;5003680;28;20316;-72
2023/07/02 08:10:07;;;;;;;14.93;11.98;;;;;;;22.74;81.29;92330.56;5008511;28;20230;-72
2023/07/02 08:12:33;;;;;;;13.98;12.48;;;;;;;23.33;75.73;92324.50;5008035;28;20213;-71
2023/07/02 08:14:58;;;;;;;14.63;11.40;;;;;;;23.57;76.75;92338.09;5009035;28;20233;-71
2023/07/02 08:17:24;;;;;;;14.07;12.65;;;;;;;23.80;76.30;92337.94;5011393;28;20190;-72
2023/07/02 08:19:49;;;;;;;13.88;12.45;;;;;;;23.93;72.03;92339.22;5008135;28;20234;-71
2023/07/02 08:22:14;;;;;;;13.05;11.65;;;;;;;23.12;74.46;92311.66;5041319;28;20190;-72
2023/07/02 08:24:40;;;;;;;14.35;11.57;;;;;;;23.42;70.69;92332.97;5009377;28;20235;-72
2023/07/02 08:27:05;;;;;;;12.68;10.57;;;;;;;23.59;71.50;92335.84;5008120;28;20219;-71
2023/07/02 08:29:31;;;;;;;11.70;10.60;;;;;;;24.04;71.31;92336.66;5008290;28;20254;-71
2023/07/02 08:31:57;;;;;;;12.73;11.48;;;;;;;23.65;68.90;92317.59;5008751;28;20247;-72
2023/07/02 08:34:23;;;;;;;11.90;10.70;;;;;;;23.86;71.81;92335.72;5009358;28;20195;-74
2023/07/02 08:36:48;;;;;;;12.35;11.25;;;;;;;23.61;71.39;92332.81;5005355;28;20193;-74
2023/07/02 08:39:15;;;;;;;11.43;10.35;;;;;;;23.70;73.95;92323.38;5007936;28;20218;-74
2023/07/02 08:41:45;;;;;;;11.77;10.68;;;;;;;24.29;71.27;92335.00;5008334;28;20198;-74
2023/07/02 08:44:12;;;;;;;11.70;10.55;;;;;;;24.69;69.64;92338.38;5010230;28;20249;-74
2023/07/02 08:46:39;;;;;;;12.70;11.50;;;;;;;24.70;68.20;92337.22;5006685;28;20212;-73
2023/07/02 08:49:04;;;;;;;11.82;10.65;;;;;;;24.66;66.62;92338.34;5008405;28;20186;-73
2023/07/02 08:51:30;;;;;;;11.50;10.55;;;;;;;24.35;69.49;92322.84;5009425;28;20260;-73
2023/07/02 08:53:55;;;;;;;12.65;11.38;;;;;;;24.70;68.26;92334.56;5006674;28;20572;-72
2023/07/02 08:56:21;;;;;;;12.75;11.48;;;;;;;24.84;68.48;92339.25;5009077;28;20218;-74
2023/07/02 08:58:46;;;;;;;12.45;11.32;;;;;;;24.43;67.35;92322.53;5009284;28;20182;-74
2023/07/02 09:01:13;;;;;;;12.32;11.13;;;;;;;24.50;66.66;92319.91;5008731;28;20230;-73
2023/07/02 09:03:40;;;;;;;12.18;10.93;;;;;;;24.11;63.60;92323.41;5010329;28;20236;-71
2023/07/02 09:06:08;;;;;;;11.65;10.45;;;;;;;24.18;66.58;92329.56;5008382;28;20235;-69
2023/07/02 09:08:35;;;;;;;11.50;10.38;;;;;;;24.17;66.60;92324.59;5017276;28;20279;-71
2023/07/02 09:11:11;;;;;;;10.38;9.48;;;;;;;24.13;71.14;92321.91;5011660;28;20220;-69
2023/07/02 09:13:46;;;;;;;11.80;10.68;;;;;;;24.25;66.44;92329.63;5010518;28;20333;-68
2023/07/02 09:16:32;;;;;;;12.38;11.18;;;;;;;24.11;69.88;92320.75;5045501;28;20224;-70
2023/07/02 09:18:59;;;;;;;12.85;10.73;;;;;;;23.47;72.32;92325.41;5012752;28;20244;-67
2023/07/02 09:21:48;;;;;;;13.23;11.93;;;;;;;23.08;74.22;92310.84;5023052;28;20221;-67
2023/07/02 09:24:23;;;;;;;14.45;12.82;;;;;;;23.59;75.14;92335.06;5003619;28;20205;-67
2023/07/02 09:26:57;;;;;;;12.90;11.80;;;;;;;23.96;73.72;92332.38;5012685;28;20205;-69
2023/07/02 09:29:24;;;;;;;16.88;11.90;;;;;;;24.23;71.42;92331.13;5012099;28;20198;-69
2023/07/02 09:31:51;;;;;;;13.70;11.63;;;;;;;24.37;71.15;92325.91;5010931;28;20186;-67
2023/07/02 09:34:16;;;;;;;13.07;11.93;;;;;;;24.42;70.17;92328.25;5014912;28;20189;-67
2023/07/02 09:36:43;;;;;;;13.90;12.10;;;;;;;24.71;69.87;92316.63;5014997;28;20201;-68
2023/07/02 09:39:14;;;;;;;12.98;11.77;;;;;;;25.04;67.14;92333.22;5012534;28;20204;-71
2023/07/02 09:41:44;;;;;;;13.10;11.70;;;;;;;24.91;67.17;92328.56;5012639;28;20189;-69
2023/07/02 09:44:10;;;;;;;13.57;12.27;;;;;;;24.58;68.74;92326.03;5011047;28;20934;-68
2023/07/02 09:46:43;;;;;;;14.07;12.45;;;;;;;24.81;67.97;92324.69;5010141;28;20224;-71
2023/07/02 09:49:14;;;;;;;14.23;11.65;;;;;;;24.83;67.92;92321.66;5005441;28;20195;-71
2023/07/02 09:51:41;;;;;;;12.77;11.48;;;;;;;24.74;67.13;92318.56;5015075;28;20191;-79
2023/07/02 09:54:07;;;;;;;11.80;10.70;;;;;;;24.60;69.78;92321.09;5021149;28;20197;-76
2023/07/02 09:56:32;;;;;;;42.50;14.20;;;;;;;24.85;68.32;92316.72;5011038;28;20205;-79
2023/07/02 09:58:58;;;;;;;12.30;11.10;;;;;;;25.26;67.88;92320.75;5010409;28;20209;-79
2023/07/02 10:01:23;;;;;;;12.20;11.07;;;;;;;24.77;69.90;92312.47;5010772;28;20241;-80
2023/07/02 10:03:49;;;;;;;13.70;11.02;;;;;;;25.83;67.08;92324.38;5010603;28;20226;-82
2023/07/02 10:06:14;;;;;;;13.20;11.77;;;;;;;26.37;66.05;92316.06;5014340;28;20223;-81
2023/07/02 10:08:39;;;;;;;12.68;11.18;;;;;;;26.78;61.61;92322.56;5014486;28;20238;-81
2023/07/02 10:11:15;;;;;;;12.80;11.52;;;;;;;26.91;62.97;92320.25;5010196;28;20223;-81
2023/07/02 10:13:41;;;;;;;12.20;11.13;;;;;;;26.91;60.88;92306.84;5010241;28;20183;-81
2023/07/02 10:16:07;;;;;;;12.38;11.27;;;;;;;26.53;62.26;92309.19;5016461;28;20215;-79
2023/07/02 10:18:32;;;;;;;14.88;11.95;;;;;;;25.94;62.63;92301.88;5009076;28;20198;-81
2023/07/02 10:20:58;;;;;;;11.45;10.45;;;;;;;25.59;66.77;92304.47;5009745;28;20250;-81
2023/07/02 10:23:36;;;;;;;12.35;11.05;;;;;;;25.45;68.45;92275.00;5020386;28;20235;-81
2023/07/02 10:26:17;;;;;;;12.23;10.98;;;;;;;25.85;67.57;92287.31;5000939;28;20291;-82
2023/07/02 10:28:55;;;;;;;12.63;11.43;;;;;;;26.24;66.65;92285.47;5010392;28;20191;-80
2023/07/02 10:31:20;;;;;;;12.77;11.60;;;;;;;26.25;63.90;92282.41;5010818;28;20211;-80
2023/07/02 10:33:47;;;;;;;13.15;11.85;;;;;;;25.97;65.20;92270.91;5011600;28;20187;-81
2023/07/02 10:36:20;;;;;;;12.15;10.85;;;;;;;26.23;65.04;92279.34;5009896;28;20231;-81
2023/07/02 10:38:46;;;;;;;13.13;11.82;;;;;;;26.07;64.36;92275.53;5011336;28;20199;-81
2023/07/02 10:41:12;;;;;;;12.73;11.55;;;;;;;25.26;67.77;92275.31;5010675;28;20214;-81
2023/07/02 10:43:38;;;;;;;12.00;10.90;;;;;;;25.50;67.81;92277.31;5012867;28;20225;-82
2023/07/02 10:46:04;;;;;;;11.45;10.30;;;;;;;25.29;68.42;92279.91;5010707;28;20227;-81
2023/07/02 10:48:30;;;;;;;11.40;10.15;;;;;;;25.29;66.75;92275.31;5011285;28;20211;-78
2023/07/02 10:50:56;;;;;;;12.70;11.48;;;;;;;25.66;70.59;92272.41;5010632;28;20226;-81
2023/07/02 10:53:22;;;;;;;12.20;11.10;;;;;;;25.69;65.14;92266.28;5018434;28;20186;-81
2023/07/02 10:55:55;;;;;;;12.68;11.48;;;;;;;25.14;68.81;92273.75;5015618;28;20254;-79
2023/07/02 10:58:20;;;;;;;11.80;10.77;;;;;;;25.00;71.17;92272.91;5011096;28;20327;-81
2023/07/02 11:00:47;;;;;;;12.65;11.45;;;;;;;24.88;70.29;92270.56;5010815;28;20230;-81
2023/07/02 11:03:23;;;;;;;11.55;10.48;;;;;;;25.09;70.36;92273.34;5014080;28;20223;-80
2023/07/02 11:05:50;;;;;;;12.43;10.70;;;;;;;24.47;70.10;92267.25;5010644;28;20230;-81
2023/07/02 11:08:16;;;;;;;12.15;11.00;;;;;;;24.54;69.42;92272.66;5013246;28;20221;-80
2023/07/02 11:10:42;;;;;;;11.93;10.73;;;;;;;25.05;68.95;92265.31;5011905;28;20227;-80
2023/07/02 11:13:15;;;;;;;12.25;11.15;;;;;;;25.05;68.60;92259.19;5010813;28;20195;-80